createdAt,value
2023-05-14T00:01:31.319Z,15.15
2023-05-14T00:03:57.819Z,14.89
2023-05-14T00:06:25.807Z,15.03
2023-05-14T00:08:52.255Z,15.08
2023-05-14T00:11:18.664Z,14.80
2023-05-14T00:13:45.107Z,15.13
2023-05-14T00:16:11.569Z,15.04
2023-05-14T00:18:38.122Z,15.07
2023-05-14T00:21:04.638Z,15.20
2023-05-14T00:23:32.457Z,15.14
2023-05-14T00:25:58.891Z,15.26
2023-05-14T00:28:25.438Z,15.28
2023-05-14T00:30:51.837Z,15.28
2023-05-14T00:33:18.486Z,15.30
2023-05-14T00:35:44.911Z,15.28
2023-05-14T00:38:11.367Z,15.39
2023-05-14T00:40:39.269Z,15.39
2023-05-14T00:43:05.704Z,14.67
2023-05-14T00:45:32.215Z,14.93
2023-05-14T00:47:58.724Z,14.95
2023-05-14T00:50:25.324Z,14.88
2023-05-14T00:52:52.052Z,14.68
2023-05-14T00:55:18.544Z,14.71
2023-05-14T00:57:46.522Z,14.70
2023-05-14T01:00:13.453Z,14.98
2023-05-14T01:02:39.997Z,15.04
2023-05-14T01:05:06.676Z,14.98
2023-05-14T01:07:37.839Z,15.19
2023-05-14T01:10:06.193Z,15.17
2023-05-14T01:12:33.863Z,15.15
2023-05-14T01:15:02.249Z,15.16
2023-05-14T01:17:29.245Z,15.16
2023-05-14T01:19:55.762Z,15.14
2023-05-14T01:22:23.576Z,15.14
2023-05-14T01:24:50.052Z,15.04
2023-05-14T01:27:17.368Z,15.02
2023-05-14T01:29:45.693Z,14.61
2023-05-14T01:32:12.335Z,14.34
2023-05-14T01:34:38.886Z,14.51
2023-05-14T01:37:05.318Z,14.83
2023-05-14T01:39:34.369Z,14.65
2023-05-14T01:42:00.817Z,14.57
2023-05-14T01:44:27.248Z,14.32
2023-05-14T01:46:53.706Z,14.16
2023-05-14T01:49:20.252Z,13.88
2023-05-14T01:51:46.713Z,13.82
2023-05-14T01:54:13.202Z,14.28
2023-05-14T01:56:41.010Z,14.63
2023-05-14T01:59:07.647Z,13.65
2023-05-14T02:01:34.168Z,13.51
2023-05-14T02:04:00.763Z,13.26
2023-05-14T02:06:27.199Z,13.34
2023-05-14T02:08:53.647Z,13.28
2023-05-14T02:11:20.069Z,13.37
2023-05-14T02:13:48.027Z,13.29
2023-05-14T02:16:14.517Z,12.83
2023-05-14T02:18:41.076Z,12.92
2023-05-14T02:21:07.596Z,12.60
2023-05-14T02:23:41.185Z,12.56
2023-05-14T02:26:09.046Z,13.27
2023-05-14T02:28:35.501Z,13.28
2023-05-14T02:31:03.499Z,12.75
2023-05-14T02:33:30.095Z,12.98
2023-05-14T02:35:56.605Z,12.91
2023-05-14T02:38:23.112Z,13.30
2023-05-14T02:40:49.553Z,13.21
2023-05-14T02:43:16.004Z,12.50
2023-05-14T02:45:42.487Z,12.78
2023-05-14T02:48:10.331Z,12.63
2023-05-14T02:50:36.815Z,13.09
2023-05-14T02:53:03.238Z,12.81
2023-05-14T02:55:29.677Z,12.99
2023-05-14T02:57:56.109Z,13.50
2023-05-14T03:00:22.837Z,13.95
2023-05-14T03:02:49.807Z,13.43
2023-05-14T03:05:18.072Z,13.50
2023-05-14T03:07:44.531Z,12.87
2023-05-14T03:10:10.979Z,12.95
2023-05-14T03:12:37.417Z,13.22
2023-05-14T03:15:04.028Z,13.60
2023-05-14T03:17:30.499Z,13.52
2023-05-14T03:19:57.028Z,13.57
2023-05-14T03:22:24.964Z,13.74
2023-05-14T03:24:51.444Z,13.59
2023-05-14T03:27:17.855Z,13.69
2023-05-14T03:29:44.319Z,13.98
2023-05-14T03:32:10.750Z,13.82
2023-05-14T03:34:37.238Z,13.99
2023-05-14T03:37:03.867Z,14.03
2023-05-14T03:39:31.659Z,13.89
2023-05-14T03:41:58.207Z,14.04
2023-05-14T03:44:24.759Z,14.23
2023-05-14T03:46:51.332Z,13.85
2023-05-14T03:49:17.797Z,13.87
2023-05-14T03:51:44.260Z,14.12
2023-05-14T03:54:10.706Z,14.07
2023-05-14T03:56:38.511Z,14.02
2023-05-14T03:59:05.028Z,13.68
2023-05-14T04:01:31.498Z,13.59
2023-05-14T04:03:58.101Z,13.68
2023-05-14T04:06:24.628Z,13.37
2023-05-14T04:08:51.049Z,13.00
2023-05-14T04:11:17.568Z,13.25
2023-05-14T04:13:45.358Z,13.18
2023-05-14T04:16:11.829Z,13.63
2023-05-14T04:18:38.371Z,13.81
2023-05-14T04:21:05.033Z,13.35
2023-05-14T04:23:31.493Z,13.38
2023-05-14T04:25:57.939Z,13.54
2023-05-14T04:28:24.424Z,13.43
2023-05-14T04:30:52.879Z,13.54
2023-05-14T04:33:19.325Z,13.80
2023-05-14T04:35:45.835Z,13.93
2023-05-14T04:38:12.299Z,14.15
2023-05-14T04:40:38.769Z,14.04
2023-05-14T04:43:05.206Z,14.22
2023-05-14T04:45:34.003Z,14.36
2023-05-14T04:48:02.189Z,14.30
2023-05-14T04:50:28.685Z,14.24
2023-05-14T04:52:55.122Z,13.90
2023-05-14T04:55:21.615Z,13.72
2023-05-14T04:57:48.061Z,14.01
2023-05-14T05:00:15.042Z,14.09
2023-05-14T05:02:41.624Z,14.05
2023-05-14T05:05:09.975Z,13.88
2023-05-14T05:07:36.446Z,13.01
2023-05-14T05:10:02.910Z,13.57
2023-05-14T05:12:29.398Z,14.02
2023-05-14T05:14:56.137Z,14.10
2023-05-14T05:17:22.566Z,13.89
2023-05-14T05:19:49.038Z,13.96
2023-05-14T05:22:16.886Z,13.76
2023-05-14T05:24:43.372Z,14.21
2023-05-14T05:27:09.860Z,14.46
2023-05-14T05:29:36.284Z,14.03
2023-05-14T05:32:02.791Z,14.23
2023-05-14T05:34:29.241Z,14.25
2023-05-14T05:36:55.711Z,14.38
2023-05-14T05:39:23.506Z,14.06
2023-05-14T05:41:49.939Z,14.21
2023-05-14T05:44:16.417Z,14.32
2023-05-14T05:46:43.021Z,14.48
2023-05-14T05:49:09.492Z,14.34
2023-05-14T05:51:35.968Z,14.28
2023-05-14T05:54:02.443Z,14.37
2023-05-14T05:56:30.437Z,14.38
2023-05-14T05:58:56.873Z,14.48
2023-05-14T06:01:23.300Z,14.59
2023-05-14T06:03:49.710Z,14.21
2023-05-14T06:06:16.159Z,14.15
2023-05-14T06:08:42.618Z,13.96
2023-05-14T06:11:09.065Z,14.10
2023-05-14T06:13:36.888Z,14.41
2023-05-14T06:16:03.442Z,14.41
2023-05-14T06:18:29.900Z,14.09
2023-05-14T06:20:56.452Z,14.12
2023-05-14T06:23:22.912Z,14.28
2023-05-14T06:25:50.672Z,14.18
2023-05-14T06:28:17.388Z,14.51
2023-05-14T06:30:45.280Z,14.27
2023-05-14T06:33:11.756Z,14.63
2023-05-14T06:35:38.266Z,14.78
2023-05-14T06:38:04.726Z,14.92
2023-05-14T06:40:31.158Z,14.66
2023-05-14T06:42:57.558Z,14.69
2023-05-14T06:45:24.084Z,14.98
2023-05-14T06:47:52.034Z,14.46
2023-05-14T06:50:18.546Z,13.66
2023-05-14T06:52:44.977Z,14.05
2023-05-14T06:55:11.453Z,14.44
2023-05-14T06:57:40.502Z,14.88
2023-05-14T07:00:07.848Z,15.18
2023-05-14T07:02:34.447Z,15.11
2023-05-14T07:05:02.254Z,15.11
2023-05-14T07:07:28.706Z,14.53
2023-05-14T07:09:55.130Z,14.76
2023-05-14T07:12:21.579Z,14.71
2023-05-14T07:14:48.051Z,14.97
2023-05-14T07:17:14.966Z,15.13
2023-05-14T07:19:41.423Z,15.39
2023-05-14T07:22:09.305Z,14.81
2023-05-14T07:24:35.742Z,14.17
2023-05-14T07:27:02.174Z,14.57
2023-05-14T07:29:28.598Z,13.91
2023-05-14T07:31:55.096Z,13.77
2023-05-14T07:34:21.555Z,14.38
2023-05-14T07:36:47.995Z,14.18
2023-05-14T07:39:15.831Z,14.53
2023-05-14T07:41:42.289Z,14.68
2023-05-14T07:44:08.692Z,14.66
2023-05-14T07:46:36.256Z,14.01
2023-05-14T07:49:02.905Z,14.28
2023-05-14T07:51:29.393Z,14.24
2023-05-14T07:53:55.838Z,14.50
2023-05-14T07:56:23.655Z,14.78
2023-05-14T07:58:50.067Z,14.67
2023-05-14T08:01:16.510Z,13.96
2023-05-14T08:03:43.090Z,13.68
2023-05-14T08:06:09.613Z,14.28
2023-05-14T08:08:36.108Z,14.76
2023-05-14T08:11:02.955Z,15.09
2023-05-14T08:13:30.801Z,15.13
2023-05-14T08:15:57.335Z,14.80
2023-05-14T08:18:23.767Z,15.29
2023-05-14T08:20:50.184Z,15.69
2023-05-14T08:23:16.758Z,15.46
2023-05-14T08:25:43.188Z,15.42
2023-05-14T08:28:09.704Z,14.46
2023-05-14T08:30:37.693Z,13.97
2023-05-14T08:33:04.251Z,14.67
2023-05-14T08:35:30.693Z,14.24
2023-05-14T08:37:57.194Z,13.70
2023-05-14T08:40:23.917Z,14.35
2023-05-14T08:42:50.868Z,14.87
2023-05-14T08:45:18.460Z,15.31
2023-05-14T08:47:46.489Z,15.18
2023-05-14T08:50:13.089Z,14.49
2023-05-14T08:52:39.546Z,14.66
2023-05-14T08:55:06.538Z,15.24
2023-05-14T08:57:33.271Z,15.39
2023-05-14T08:59:59.787Z,15.21
2023-05-14T09:02:28.198Z,14.29
2023-05-14T09:04:57.106Z,13.74
2023-05-14T09:07:23.705Z,14.42
2023-05-14T09:09:50.324Z,13.77
2023-05-14T09:12:16.741Z,13.52
2023-05-14T09:14:43.590Z,13.12
2023-05-14T09:17:10.054Z,13.64
2023-05-14T09:19:36.461Z,14.34
2023-05-14T09:22:09.612Z,13.94
2023-05-14T09:24:36.088Z,14.35
2023-05-14T09:27:02.513Z,14.41
2023-05-14T09:29:29.237Z,14.62
2023-05-14T09:31:55.817Z,14.78
2023-05-14T09:34:25.903Z,14.76
2023-05-14T09:36:54.450Z,13.77
2023-05-14T09:39:22.320Z,14.04
2023-05-14T09:41:48.761Z,14.23
2023-05-14T09:44:15.214Z,14.82
2023-05-14T09:46:41.664Z,14.45
2023-05-14T09:49:08.104Z,14.94
2023-05-14T09:51:34.518Z,14.55
2023-05-14T09:54:01.060Z,14.75
2023-05-14T09:56:28.852Z,14.89
2023-05-14T09:58:55.267Z,15.23
2023-05-14T10:01:21.852Z,15.24
2023-05-14T10:03:48.340Z,15.14
2023-05-14T10:06:15.278Z,14.99
2023-05-14T10:08:42.906Z,15.21
2023-05-14T10:11:11.140Z,15.54
2023-05-14T10:13:42.414Z,15.96
2023-05-14T10:16:11.456Z,14.54
2023-05-14T10:18:40.062Z,14.70
2023-05-14T10:21:06.954Z,14.73
2023-05-14T10:23:33.439Z,15.26
2023-05-14T10:25:59.904Z,15.35
2023-05-14T10:28:26.363Z,14.97
2023-05-14T10:30:54.284Z,14.29
2023-05-14T10:33:20.759Z,14.96
2023-05-14T10:35:57.248Z,15.23
2023-05-14T10:38:25.064Z,15.53
2023-05-14T10:40:54.105Z,15.54
2023-05-14T10:43:20.947Z,15.79
2023-05-14T10:45:47.371Z,16.02
2023-05-14T10:48:15.381Z,16.40
2023-05-14T10:50:41.966Z,16.63
2023-05-14T10:53:10.604Z,16.51
2023-05-14T10:55:37.062Z,16.27
2023-05-14T10:58:04.019Z,16.30
2023-05-14T11:00:30.552Z,15.82
2023-05-14T11:02:57.361Z,15.15
2023-05-14T11:05:25.331Z,15.71
2023-05-14T11:07:51.860Z,16.06
2023-05-14T11:10:19.050Z,15.40
2023-05-14T11:12:45.971Z,15.08
2023-05-14T11:15:12.961Z,15.16
2023-05-14T11:17:40.206Z,14.41
2023-05-14T11:20:07.288Z,15.02
2023-05-14T11:22:35.375Z,15.55
2023-05-14T11:25:01.872Z,15.60
2023-05-14T11:27:28.313Z,14.72
2023-05-14T11:29:54.774Z,14.79
2023-05-14T11:32:21.329Z,15.02
2023-05-14T11:34:47.826Z,14.73
2023-05-14T11:37:14.528Z,14.41
2023-05-14T11:39:47.335Z,14.47
2023-05-14T11:42:14.030Z,15.21
2023-05-14T11:44:40.571Z,15.42
2023-05-14T11:47:07.035Z,15.68
2023-05-14T11:49:33.447Z,15.42
2023-05-14T11:52:00.315Z,15.96
2023-05-14T11:54:27.048Z,16.37
2023-05-14T11:56:55.191Z,15.76
2023-05-14T11:59:21.613Z,15.29
2023-05-14T12:01:50.651Z,16.04
2023-05-14T12:04:17.748Z,16.72
2023-05-14T12:06:44.250Z,16.95
2023-05-14T12:09:12.355Z,16.97
2023-05-14T12:11:38.782Z,17.82
2023-05-14T12:14:11.857Z,18.84
2023-05-14T12:16:39.743Z,18.04
2023-05-14T12:19:06.506Z,18.50
2023-05-14T12:21:34.376Z,19.04
2023-05-14T12:24:00.940Z,19.34
2023-05-14T12:26:27.391Z,19.46
2023-05-14T12:28:56.920Z,19.07
2023-05-14T12:31:31.709Z,17.70
2023-05-14T12:37:04.232Z,18.30
2023-05-14T12:39:34.318Z,17.47
2023-05-14T12:42:00.826Z,17.65
2023-05-14T12:44:27.419Z,18.39
2023-05-14T12:46:55.283Z,17.64
2023-05-14T12:49:21.893Z,18.04
2023-05-14T12:51:48.399Z,18.45
2023-05-14T12:54:17.739Z,17.77
2023-05-14T12:56:44.226Z,17.20
2023-05-14T12:59:10.646Z,17.59
2023-05-14T13:01:37.316Z,18.11
2023-05-14T13:04:05.503Z,17.35
2023-05-14T13:06:32.118Z,17.34
2023-05-14T13:08:58.541Z,17.18
2023-05-14T13:11:25.189Z,17.70
2023-05-14T13:13:51.614Z,17.76
2023-05-14T13:16:18.124Z,17.76
2023-05-14T13:18:44.632Z,18.05
2023-05-14T13:21:12.476Z,17.93
2023-05-14T13:23:38.947Z,17.57
2023-05-14T13:26:05.376Z,17.66
2023-05-14T13:28:31.828Z,18.08
2023-05-14T13:31:05.905Z,18.20
2023-05-14T13:33:32.786Z,18.28
2023-05-14T13:35:59.197Z,18.16
2023-05-14T13:38:27.028Z,18.11
2023-05-14T13:40:53.490Z,17.94
2023-05-14T13:43:19.958Z,18.11
2023-05-14T13:45:52.631Z,18.35
2023-05-14T13:48:19.167Z,17.44
2023-05-14T13:50:45.581Z,17.66
2023-05-14T13:53:12.101Z,18.14
2023-05-14T13:55:39.885Z,18.73
2023-05-14T13:58:06.346Z,18.64
2023-05-14T14:00:32.858Z,18.70
2023-05-14T14:02:59.344Z,18.44
2023-05-14T14:05:26.145Z,18.92
2023-05-14T14:07:54.758Z,18.47
2023-05-14T14:10:33.129Z,17.28
2023-05-14T14:13:01.013Z,17.90
2023-05-14T14:15:27.447Z,17.91
2023-05-14T14:17:54.148Z,18.06
2023-05-14T14:20:20.622Z,17.73
2023-05-14T14:22:47.092Z,17.40
2023-05-14T14:25:13.532Z,17.34
2023-05-14T14:27:40.023Z,17.70
2023-05-14T14:30:09.197Z,17.51
2023-05-14T14:32:35.698Z,17.85
2023-05-14T14:35:02.172Z,18.69
2023-05-14T14:37:28.588Z,19.22
2023-05-14T14:39:55.039Z,18.92
2023-05-14T14:42:21.443Z,18.66
2023-05-14T14:44:47.841Z,18.14
2023-05-14T14:47:15.709Z,18.21
2023-05-14T14:49:42.152Z,17.93
2023-05-14T14:52:08.589Z,18.68
2023-05-14T14:54:35.004Z,19.28
2023-05-14T14:57:01.588Z,19.35
2023-05-14T14:59:28.068Z,19.65
2023-05-14T15:01:54.888Z,19.37
2023-05-14T15:04:22.802Z,19.03
2023-05-14T15:06:49.248Z,18.23
2023-05-14T15:09:15.729Z,18.44
2023-05-14T15:11:42.206Z,19.05
2023-05-14T15:14:08.655Z,19.41
2023-05-14T15:16:35.117Z,19.95
2023-05-14T15:19:01.631Z,20.08
2023-05-14T15:21:29.759Z,19.92
2023-05-14T15:23:56.205Z,19.91
2023-05-14T15:26:22.627Z,20.11
2023-05-14T15:28:49.126Z,19.86
2023-05-14T15:31:15.719Z,19.27
2023-05-14T15:33:42.235Z,18.92
2023-05-14T15:36:08.875Z,19.62
2023-05-14T15:38:36.773Z,19.88
2023-05-14T15:41:03.197Z,19.82
2023-05-14T15:43:29.629Z,19.98
2023-05-14T15:45:56.067Z,19.97
2023-05-14T15:48:22.655Z,19.97
2023-05-14T15:50:49.771Z,19.46
2023-05-14T15:53:16.406Z,19.87
2023-05-14T15:55:44.238Z,19.70
2023-05-14T15:58:10.682Z,19.53
2023-05-14T16:00:37.117Z,19.69
2023-05-14T16:03:03.797Z,19.29
2023-05-14T16:05:30.244Z,19.08
2023-05-14T16:07:56.648Z,18.63
2023-05-14T16:10:23.507Z,18.26
2023-05-14T16:12:51.578Z,18.18
2023-05-14T16:15:18.018Z,18.03
2023-05-14T16:17:44.532Z,17.59
2023-05-14T16:20:11.831Z,17.34
2023-05-14T16:22:38.283Z,16.92
2023-05-14T16:25:05.108Z,16.89
2023-05-14T16:27:31.663Z,17.17
2023-05-14T16:29:59.642Z,17.09
2023-05-14T16:32:26.178Z,16.99
2023-05-14T16:34:52.760Z,16.94
2023-05-14T16:37:19.318Z,16.73
2023-05-14T16:39:45.744Z,16.38
2023-05-14T16:42:12.201Z,16.55
2023-05-14T16:44:38.638Z,16.78
2023-05-14T16:47:07.012Z,16.37
2023-05-14T16:49:33.425Z,16.12
2023-05-14T16:51:59.881Z,16.21
2023-05-14T16:54:26.339Z,16.06
2023-05-14T16:56:52.768Z,16.25
2023-05-14T16:59:19.203Z,16.36
2023-05-14T17:01:45.665Z,16.30
2023-05-14T17:04:13.617Z,16.29
2023-05-14T17:06:40.088Z,16.21
2023-05-14T17:09:06.554Z,16.01
2023-05-14T17:11:32.982Z,16.13
2023-05-14T17:13:59.393Z,16.02
2023-05-14T17:16:25.858Z,15.93
2023-05-14T17:18:52.386Z,16.05
2023-05-14T17:21:20.257Z,15.63
2023-05-14T17:23:46.733Z,15.59
2023-05-14T17:26:13.256Z,15.57
2023-05-14T17:28:39.715Z,15.54
2023-05-14T17:31:06.216Z,15.54
2023-05-14T17:33:32.822Z,15.71
2023-05-14T17:35:59.271Z,15.52
2023-05-14T17:38:27.080Z,15.86
2023-05-14T17:40:53.538Z,15.90
2023-05-14T17:43:19.956Z,15.93
2023-05-14T17:45:53.838Z,15.89
2023-05-14T17:48:21.491Z,16.07
2023-05-14T17:50:47.931Z,16.29
2023-05-14T17:53:17.536Z,16.27
2023-05-14T17:55:45.349Z,15.97
2023-05-14T17:58:11.786Z,15.87
2023-05-14T18:00:38.297Z,15.83
2023-05-14T18:03:04.956Z,15.80
2023-05-14T18:05:31.492Z,15.82
2023-05-14T18:07:57.948Z,16.12
2023-05-14T18:10:24.419Z,16.18
2023-05-14T18:12:52.222Z,16.23
2023-05-14T18:15:19.145Z,16.06
2023-05-14T18:17:45.643Z,16.02
2023-05-14T18:20:12.190Z,15.89
2023-05-14T18:22:38.670Z,15.62
2023-05-14T18:25:05.625Z,15.54
2023-05-14T18:27:32.114Z,15.35
2023-05-14T18:29:59.893Z,15.11
2023-05-14T18:32:28.321Z,14.60
2023-05-14T18:34:54.775Z,14.72
2023-05-14T18:37:21.254Z,14.78
2023-05-14T18:39:47.728Z,14.80
2023-05-14T18:42:14.211Z,14.45
2023-05-14T18:44:40.608Z,14.66
2023-05-14T18:47:08.449Z,14.52
2023-05-14T18:49:34.900Z,15.17
2023-05-14T18:52:01.342Z,15.00
2023-05-14T18:54:27.811Z,14.92
2023-05-14T18:56:54.236Z,15.10
2023-05-14T18:59:20.679Z,14.83
2023-05-14T19:01:47.144Z,14.23
2023-05-14T19:04:15.286Z,14.33
2023-05-14T19:06:44.458Z,14.19
2023-05-14T19:09:10.906Z,14.20
2023-05-14T19:11:37.366Z,14.17
2023-05-14T19:14:03.942Z,14.33
2023-05-14T19:16:30.420Z,14.46
2023-05-14T19:18:57.028Z,14.53
2023-05-14T19:21:24.913Z,14.25
2023-05-14T19:23:52.622Z,14.71
2023-05-14T19:26:19.042Z,14.57
2023-05-14T19:28:45.496Z,14.91
2023-05-14T19:31:11.932Z,14.79
2023-05-14T19:33:38.413Z,14.80
2023-05-14T19:36:05.145Z,14.67
2023-05-14T19:38:33.274Z,14.79
2023-05-14T19:40:59.843Z,14.75
2023-05-14T19:43:26.281Z,14.71
2023-05-14T19:45:52.725Z,15.04
2023-05-14T19:48:19.218Z,15.14
2023-05-14T19:50:45.669Z,15.32
2023-05-14T19:53:12.106Z,14.94
2023-05-14T19:55:39.942Z,14.95
2023-05-14T19:58:06.466Z,15.09
2023-05-14T20:00:32.960Z,15.16
2023-05-14T20:03:08.750Z,14.98
2023-05-14T20:05:35.315Z,14.92
2023-05-14T20:08:01.818Z,14.84
2023-05-14T20:10:30.157Z,14.61
2023-05-14T20:12:57.967Z,14.81
2023-05-14T20:15:24.455Z,14.76
2023-05-14T20:17:50.980Z,14.94
2023-05-14T20:20:17.542Z,14.94
2023-05-14T20:22:44.017Z,14.58
2023-05-14T20:25:10.521Z,14.43
2023-05-14T20:27:37.000Z,14.22
2023-05-14T20:30:06.029Z,14.75
2023-05-14T20:32:32.483Z,14.50
2023-05-14T20:34:58.952Z,14.86
2023-05-14T20:37:25.350Z,14.88
2023-05-14T20:39:51.803Z,15.32
2023-05-14T20:42:18.316Z,15.32
2023-05-14T20:44:44.728Z,15.18
2023-05-14T20:47:12.722Z,15.24
2023-05-14T20:49:39.163Z,15.17
2023-05-14T20:52:08.405Z,15.36
2023-05-14T20:54:34.831Z,15.38
2023-05-14T20:57:01.272Z,15.24
2023-05-14T20:59:27.683Z,15.01
2023-05-14T21:01:54.155Z,15.04
2023-05-14T21:04:22.235Z,15.32
2023-05-14T21:06:48.865Z,15.37
2023-05-14T21:09:15.326Z,15.32
2023-05-14T21:11:41.733Z,15.42
2023-05-14T21:14:08.194Z,15.36
2023-05-14T21:16:35.163Z,15.07
2023-05-14T21:19:01.667Z,15.05
2023-05-14T21:21:29.505Z,15.13
2023-05-14T21:23:55.977Z,14.93
2023-05-14T21:26:22.404Z,14.95
2023-05-14T21:28:48.853Z,15.35
2023-05-14T21:31:15.337Z,15.12
2023-05-14T21:33:41.814Z,14.73
2023-05-14T21:36:08.412Z,14.75
2023-05-14T21:38:36.220Z,14.45
2023-05-14T21:41:02.672Z,14.35
2023-05-14T21:43:29.090Z,14.22
2023-05-14T21:45:55.576Z,14.42
2023-05-14T21:48:22.062Z,14.66
2023-05-14T21:50:48.580Z,14.49
2023-05-14T21:53:15.100Z,14.64
2023-05-14T21:55:42.943Z,14.59
2023-05-14T21:58:09.379Z,14.67
2023-05-14T22:00:35.841Z,14.68
2023-05-14T22:03:02.397Z,14.41
2023-05-14T22:05:29.061Z,14.49
2023-05-14T22:07:55.773Z,14.34
2023-05-14T22:10:22.304Z,14.18
2023-05-14T22:12:50.159Z,14.36
2023-05-14T22:15:16.574Z,14.62
2023-05-14T22:17:43.037Z,14.51
2023-05-14T22:20:09.690Z,14.44
2023-05-14T22:22:36.188Z,13.84
2023-05-14T22:27:30.276Z,13.95
2023-05-14T22:29:58.073Z,14.09
2023-05-14T22:32:24.664Z,14.19
2023-05-14T22:34:51.088Z,14.27
2023-05-14T22:37:17.535Z,14.30
2023-05-14T22:39:43.936Z,14.34
2023-05-14T22:42:10.388Z,14.30
2023-05-14T22:44:36.880Z,14.33
2023-05-14T22:47:04.944Z,14.58
2023-05-14T22:49:31.466Z,14.46
2023-05-14T22:51:57.892Z,14.55
2023-05-14T22:54:24.493Z,14.44
2023-05-14T22:56:50.946Z,14.44
2023-05-14T22:59:17.436Z,14.55
2023-05-14T23:01:43.942Z,14.29
2023-05-14T23:04:11.939Z,13.99
2023-05-14T23:06:38.435Z,14.07
2023-05-14T23:09:04.900Z,13.82
2023-05-14T23:11:31.409Z,13.73
2023-05-14T23:13:57.878Z,13.83
2023-05-14T23:16:24.334Z,13.75
2023-05-14T23:18:51.257Z,13.91
2023-05-14T23:21:19.235Z,14.09
2023-05-14T23:23:45.715Z,13.96
2023-05-14T23:26:12.144Z,13.74
2023-05-14T23:28:38.572Z,13.45
2023-05-14T23:31:05.065Z,13.51
2023-05-14T23:33:31.497Z,13.51
2023-05-14T23:35:58.015Z,13.52
2023-05-14T23:38:25.852Z,13.35
2023-05-14T23:40:52.337Z,13.45
2023-05-14T23:43:18.783Z,13.59
2023-05-14T23:45:45.263Z,13.70
2023-05-14T23:48:11.672Z,13.44
2023-05-14T23:50:38.121Z,13.42
2023-05-14T23:53:04.580Z,13.52
2023-05-14T23:55:32.394Z,13.66
2023-05-14T23:57:58.784Z,13.68
